sensor_id;sensor_type;location;lat;lon;timestamp;P1;durP1;ratioP1;P2;durP2;ratioP2
75823;SDS011;64457;51.976;9.834;2023-03-23T00:01:29;5.13;;;1.30;;
75823;SDS011;64457;51.976;9.834;2023-03-23T00:04:03;6.23;;;1.40;;
75823;SDS011;64457;51.976;9.834;2023-03-23T00:06:32;7.17;;;1.60;;
75823;SDS011;64457;51.976;9.834;2023-03-23T00:09:00;7.47;;;1.53;;
75823;SDS011;64457;51.976;9.834;2023-03-23T00:11:29;6.77;;;1.60;;
75823;SDS011;64457;51.976;9.834;2023-03-23T00:14:01;7.13;;;1.53;;
75823;SDS011;64457;51.976;9.834;2023-03-23T00:16:32;6.03;;;1.70;;
75823;SDS011;64457;51.976;9.834;2023-03-23T00:19:07;6.47;;;1.40;;
75823;SDS011;64457;51.976;9.834;2023-03-23T00:21:38;5.80;;;1.60;;
75823;SDS011;64457;51.976;9.834;2023-03-23T00:24:10;7.93;;;1.73;;
75823;SDS011;64457;51.976;9.834;2023-03-23T00:26:41;5.50;;;1.50;;
75823;SDS011;64457;51.976;9.834;2023-03-23T00:29:13;5.50;;;1.30;;
75823;SDS011;64457;51.976;9.834;2023-03-23T00:31:42;6.70;;;1.47;;
75823;SDS011;64457;51.976;9.834;2023-03-23T00:34:14;5.53;;;1.57;;
75823;SDS011;64457;51.976;9.834;2023-03-23T00:36:44;6.93;;;1.23;;
75823;SDS011;64457;51.976;9.834;2023-03-23T00:39:14;6.17;;;1.40;;
75823;SDS011;64457;51.976;9.834;2023-03-23T00:41:43;10.73;;;2.00;;
75823;SDS011;64457;51.976;9.834;2023-03-23T00:44:12;5.50;;;1.30;;
75823;SDS011;64457;51.976;9.834;2023-03-23T00:46:44;5.50;;;1.40;;
75823;SDS011;64457;51.976;9.834;2023-03-23T00:49:16;6.80;;;1.57;;
75823;SDS011;64457;51.976;9.834;2023-03-23T00:51:45;8.27;;;1.60;;
75823;SDS011;64457;51.976;9.834;2023-03-23T00:54:13;8.13;;;1.70;;
75823;SDS011;64457;51.976;9.834;2023-03-23T00:56:41;6.60;;;1.60;;
75823;SDS011;64457;51.976;9.834;2023-03-23T00:59:08;6.50;;;1.40;;
75823;SDS011;64457;51.976;9.834;2023-03-23T01:01:37;7.10;;;1.40;;
75823;SDS011;64457;51.976;9.834;2023-03-23T01:04:05;7.50;;;1.73;;
75823;SDS011;64457;51.976;9.834;2023-03-23T01:06:36;7.27;;;1.73;;
75823;SDS011;64457;51.976;9.834;2023-03-23T01:09:05;7.10;;;1.70;;
75823;SDS011;64457;51.976;9.834;2023-03-23T01:11:34;6.20;;;1.50;;
75823;SDS011;64457;51.976;9.834;2023-03-23T01:14:03;11.47;;;1.97;;
75823;SDS011;64457;51.976;9.834;2023-03-23T01:16:31;8.00;;;1.50;;
75823;SDS011;64457;51.976;9.834;2023-03-23T01:19:01;6.17;;;1.60;;
75823;SDS011;64457;51.976;9.834;2023-03-23T01:21:29;7.53;;;1.80;;
75823;SDS011;64457;51.976;9.834;2023-03-23T01:23:58;8.80;;;1.73;;
75823;SDS011;64457;51.976;9.834;2023-03-23T01:26:26;5.77;;;1.57;;
75823;SDS011;64457;51.976;9.834;2023-03-23T01:28:55;6.47;;;1.50;;
75823;SDS011;64457;51.976;9.834;2023-03-23T01:31:24;6.50;;;1.30;;
75823;SDS011;64457;51.976;9.834;2023-03-23T01:33:53;7.30;;;1.83;;
75823;SDS011;64457;51.976;9.834;2023-03-23T01:36:22;13.40;;;1.70;;
75823;SDS011;64457;51.976;9.834;2023-03-23T01:38:54;6.00;;;1.60;;
75823;SDS011;64457;51.976;9.834;2023-03-23T01:41:24;6.20;;;1.60;;
75823;SDS011;64457;51.976;9.834;2023-03-23T01:43:56;6.20;;;1.50;;
75823;SDS011;64457;51.976;9.834;2023-03-23T01:46:29;6.23;;;1.47;;
75823;SDS011;64457;51.976;9.834;2023-03-23T01:48:59;8.87;;;1.73;;
75823;SDS011;64457;51.976;9.834;2023-03-23T01:51:33;7.50;;;1.53;;
75823;SDS011;64457;51.976;9.834;2023-03-23T01:54:06;7.47;;;1.40;;
75823;SDS011;64457;51.976;9.834;2023-03-23T01:56:41;6.80;;;1.80;;
75823;SDS011;64457;51.976;9.834;2023-03-23T01:59:15;10.53;;;1.60;;
75823;SDS011;64457;51.976;9.834;2023-03-23T02:01:43;6.47;;;1.50;;
75823;SDS011;64457;51.976;9.834;2023-03-23T02:04:12;7.53;;;1.93;;
75823;SDS011;64457;51.976;9.834;2023-03-23T02:06:43;8.90;;;1.70;;
75823;SDS011;64457;51.976;9.834;2023-03-23T02:09:11;5.90;;;1.83;;
75823;SDS011;64457;51.976;9.834;2023-03-23T02:11:44;6.17;;;1.80;;
75823;SDS011;64457;51.976;9.834;2023-03-23T02:14:13;5.87;;;1.50;;
75823;SDS011;64457;51.976;9.834;2023-03-23T02:16:43;7.43;;;1.60;;
75823;SDS011;64457;51.976;9.834;2023-03-23T02:22:36;5.87;;;1.53;;
75823;SDS011;64457;51.976;9.834;2023-03-23T02:25:33;6.80;;;1.80;;
75823;SDS011;64457;51.976;9.834;2023-03-23T02:31:30;7.83;;;1.57;;
75823;SDS011;64457;51.976;9.834;2023-03-23T02:34:14;7.90;;;2.10;;
75823;SDS011;64457;51.976;9.834;2023-03-23T02:36:46;11.13;;;2.03;;
75823;SDS011;64457;51.976;9.834;2023-03-23T02:39:21;7.67;;;2.40;;
75823;SDS011;64457;51.976;9.834;2023-03-23T02:41:52;6.60;;;1.70;;
75823;SDS011;64457;51.976;9.834;2023-03-23T02:44:25;9.50;;;1.90;;
75823;SDS011;64457;51.976;9.834;2023-03-23T02:46:59;8.43;;;1.83;;
75823;SDS011;64457;51.976;9.834;2023-03-23T02:49:31;9.43;;;2.10;;
75823;SDS011;64457;51.976;9.834;2023-03-23T02:52:03;7.70;;;2.10;;
75823;SDS011;64457;51.976;9.834;2023-03-23T02:54:38;11.20;;;2.77;;
75823;SDS011;64457;51.976;9.834;2023-03-23T02:57:08;16.00;;;2.83;;
75823;SDS011;64457;51.976;9.834;2023-03-23T02:59:38;7.77;;;1.97;;
75823;SDS011;64457;51.976;9.834;2023-03-23T03:02:07;8.10;;;2.20;;
75823;SDS011;64457;51.976;9.834;2023-03-23T03:04:44;7.57;;;1.87;;
75823;SDS011;64457;51.976;9.834;2023-03-23T03:10:18;6.60;;;2.07;;
75823;SDS011;64457;51.976;9.834;2023-03-23T03:12:52;7.13;;;2.07;;
75823;SDS011;64457;51.976;9.834;2023-03-23T03:15:26;8.80;;;2.03;;
75823;SDS011;64457;51.976;9.834;2023-03-23T03:18:02;8.03;;;2.37;;
75823;SDS011;64457;51.976;9.834;2023-03-23T03:20:40;9.00;;;2.03;;
75823;SDS011;64457;51.976;9.834;2023-03-23T03:23:11;7.60;;;1.90;;
75823;SDS011;64457;51.976;9.834;2023-03-23T03:25:41;10.00;;;2.00;;
75823;SDS011;64457;51.976;9.834;2023-03-23T03:28:16;8.20;;;2.43;;
75823;SDS011;64457;51.976;9.834;2023-03-23T03:30:47;9.80;;;2.20;;
75823;SDS011;64457;51.976;9.834;2023-03-23T03:33:20;7.93;;;2.20;;
75823;SDS011;64457;51.976;9.834;2023-03-23T03:35:52;9.30;;;3.00;;
75823;SDS011;64457;51.976;9.834;2023-03-23T03:38:22;10.10;;;2.40;;
75823;SDS011;64457;51.976;9.834;2023-03-23T03:40:51;7.87;;;2.30;;
75823;SDS011;64457;51.976;9.834;2023-03-23T03:43:19;9.93;;;2.07;;
75823;SDS011;64457;51.976;9.834;2023-03-23T03:45:46;10.37;;;2.60;;
75823;SDS011;64457;51.976;9.834;2023-03-23T03:48:14;9.40;;;2.17;;
75823;SDS011;64457;51.976;9.834;2023-03-23T03:50:41;6.70;;;2.23;;
75823;SDS011;64457;51.976;9.834;2023-03-23T03:53:10;7.10;;;2.13;;
75823;SDS011;64457;51.976;9.834;2023-03-23T03:55:39;8.67;;;2.47;;
75823;SDS011;64457;51.976;9.834;2023-03-23T03:58:10;9.33;;;2.40;;
75823;SDS011;64457;51.976;9.834;2023-03-23T04:00:38;7.83;;;2.10;;
75823;SDS011;64457;51.976;9.834;2023-03-23T04:03:06;9.30;;;2.23;;
75823;SDS011;64457;51.976;9.834;2023-03-23T04:05:35;7.40;;;1.97;;
75823;SDS011;64457;51.976;9.834;2023-03-23T04:08:03;7.20;;;2.20;;
75823;SDS011;64457;51.976;9.834;2023-03-23T04:10:32;9.07;;;2.60;;
75823;SDS011;64457;51.976;9.834;2023-03-23T04:13:01;7.13;;;2.07;;
75823;SDS011;64457;51.976;9.834;2023-03-23T04:15:29;8.50;;;2.23;;
75823;SDS011;64457;51.976;9.834;2023-03-23T04:17:57;6.77;;;1.93;;
75823;SDS011;64457;51.976;9.834;2023-03-23T04:20:25;6.53;;;1.93;;
75823;SDS011;64457;51.976;9.834;2023-03-23T04:22:53;7.43;;;1.97;;
75823;SDS011;64457;51.976;9.834;2023-03-23T04:25:22;8.90;;;2.27;;
75823;SDS011;64457;51.976;9.834;2023-03-23T04:27:51;6.87;;;1.60;;
75823;SDS011;64457;51.976;9.834;2023-03-23T04:30:20;7.93;;;2.00;;
75823;SDS011;64457;51.976;9.834;2023-03-23T04:32:50;8.57;;;2.30;;
75823;SDS011;64457;51.976;9.834;2023-03-23T04:35:22;7.87;;;2.33;;
75823;SDS011;64457;51.976;9.834;2023-03-23T04:37:51;6.77;;;2.10;;
75823;SDS011;64457;51.976;9.834;2023-03-23T04:40:22;8.93;;;2.07;;
75823;SDS011;64457;51.976;9.834;2023-03-23T04:42:54;9.77;;;2.30;;
75823;SDS011;64457;51.976;9.834;2023-03-23T04:45:30;14.20;;;2.00;;
75823;SDS011;64457;51.976;9.834;2023-03-23T04:48:00;7.83;;;2.10;;
75823;SDS011;64457;51.976;9.834;2023-03-23T04:50:30;8.93;;;2.40;;
75823;SDS011;64457;51.976;9.834;2023-03-23T04:53:02;6.50;;;2.00;;
75823;SDS011;64457;51.976;9.834;2023-03-23T04:55:30;8.27;;;2.10;;
75823;SDS011;64457;51.976;9.834;2023-03-23T04:58:04;8.80;;;2.17;;
75823;SDS011;64457;51.976;9.834;2023-03-23T05:00:34;7.27;;;1.67;;
75823;SDS011;64457;51.976;9.834;2023-03-23T05:03:03;7.97;;;2.10;;
75823;SDS011;64457;51.976;9.834;2023-03-23T05:05:33;7.77;;;2.30;;
75823;SDS011;64457;51.976;9.834;2023-03-23T05:08:05;7.20;;;1.80;;
75823;SDS011;64457;51.976;9.834;2023-03-23T05:10:33;6.60;;;1.77;;
75823;SDS011;64457;51.976;9.834;2023-03-23T05:13:01;8.00;;;1.87;;
75823;SDS011;64457;51.976;9.834;2023-03-23T05:15:30;7.40;;;2.23;;
75823;SDS011;64457;51.976;9.834;2023-03-23T05:17:58;6.67;;;2.10;;
75823;SDS011;64457;51.976;9.834;2023-03-23T05:20:27;9.40;;;2.30;;
75823;SDS011;64457;51.976;9.834;2023-03-23T05:22:55;6.67;;;2.10;;
75823;SDS011;64457;51.976;9.834;2023-03-23T05:25:24;6.90;;;2.03;;
75823;SDS011;64457;51.976;9.834;2023-03-23T05:27:53;7.40;;;1.87;;
75823;SDS011;64457;51.976;9.834;2023-03-23T05:30:22;6.60;;;1.90;;
75823;SDS011;64457;51.976;9.834;2023-03-23T05:32:50;6.23;;;1.93;;
75823;SDS011;64457;51.976;9.834;2023-03-23T05:35:19;11.43;;;2.00;;
75823;SDS011;64457;51.976;9.834;2023-03-23T05:37:46;8.10;;;1.93;;
75823;SDS011;64457;51.976;9.834;2023-03-23T05:40:14;6.60;;;1.90;;
75823;SDS011;64457;51.976;9.834;2023-03-23T05:42:42;7.90;;;2.10;;
75823;SDS011;64457;51.976;9.834;2023-03-23T05:45:11;9.30;;;2.00;;
75823;SDS011;64457;51.976;9.834;2023-03-23T05:47:40;7.33;;;1.83;;
75823;SDS011;64457;51.976;9.834;2023-03-23T05:50:09;6.57;;;1.80;;
75823;SDS011;64457;51.976;9.834;2023-03-23T05:52:38;7.10;;;1.90;;
75823;SDS011;64457;51.976;9.834;2023-03-23T05:55:08;7.80;;;2.10;;
75823;SDS011;64457;51.976;9.834;2023-03-23T05:57:38;6.37;;;2.00;;
75823;SDS011;64457;51.976;9.834;2023-03-23T06:00:06;7.00;;;2.00;;
75823;SDS011;64457;51.976;9.834;2023-03-23T06:02:47;11.60;;;2.20;;
75823;SDS011;64457;51.976;9.834;2023-03-23T06:05:21;6.40;;;1.80;;
75823;SDS011;64457;51.976;9.834;2023-03-23T06:07:51;7.27;;;2.03;;
75823;SDS011;64457;51.976;9.834;2023-03-23T06:10:19;6.60;;;1.73;;
75823;SDS011;64457;51.976;9.834;2023-03-23T06:12:46;6.70;;;1.53;;
75823;SDS011;64457;51.976;9.834;2023-03-23T06:15:16;11.03;;;1.40;;
75823;SDS011;64457;51.976;9.834;2023-03-23T06:17:49;6.93;;;1.53;;
75823;SDS011;64457;51.976;9.834;2023-03-23T06:20:25;5.93;;;1.53;;
75823;SDS011;64457;51.976;9.834;2023-03-23T06:22:55;7.27;;;1.63;;
75823;SDS011;64457;51.976;9.834;2023-03-23T06:25:23;6.30;;;1.70;;
75823;SDS011;64457;51.976;9.834;2023-03-23T06:27:53;7.27;;;1.70;;
75823;SDS011;64457;51.976;9.834;2023-03-23T06:30:23;5.87;;;1.67;;
75823;SDS011;64457;51.976;9.834;2023-03-23T06:32:56;8.77;;;1.50;;
75823;SDS011;64457;51.976;9.834;2023-03-23T06:35:24;7.53;;;1.93;;
75823;SDS011;64457;51.976;9.834;2023-03-23T06:37:52;6.87;;;1.60;;
75823;SDS011;64457;51.976;9.834;2023-03-23T06:40:20;7.13;;;1.47;;
75823;SDS011;64457;51.976;9.834;2023-03-23T06:42:48;5.97;;;1.63;;
75823;SDS011;64457;51.976;9.834;2023-03-23T06:45:15;7.97;;;1.60;;
75823;SDS011;64457;51.976;9.834;2023-03-23T06:47:45;6.67;;;1.70;;
75823;SDS011;64457;51.976;9.834;2023-03-23T06:50:15;5.30;;;1.30;;
75823;SDS011;64457;51.976;9.834;2023-03-23T06:52:44;6.80;;;1.50;;
75823;SDS011;64457;51.976;9.834;2023-03-23T06:55:13;7.23;;;1.53;;
75823;SDS011;64457;51.976;9.834;2023-03-23T06:57:43;7.30;;;1.80;;
75823;SDS011;64457;51.976;9.834;2023-03-23T07:00:12;6.27;;;1.50;;
75823;SDS011;64457;51.976;9.834;2023-03-23T07:02:41;5.90;;;1.40;;
75823;SDS011;64457;51.976;9.834;2023-03-23T07:05:10;5.83;;;1.40;;
75823;SDS011;64457;51.976;9.834;2023-03-23T07:07:40;6.00;;;1.37;;
75823;SDS011;64457;51.976;9.834;2023-03-23T07:10:09;5.43;;;1.37;;
75823;SDS011;64457;51.976;9.834;2023-03-23T07:12:37;5.83;;;1.30;;
75823;SDS011;64457;51.976;9.834;2023-03-23T07:15:06;6.70;;;1.43;;
75823;SDS011;64457;51.976;9.834;2023-03-23T07:17:35;5.10;;;1.10;;
75823;SDS011;64457;51.976;9.834;2023-03-23T07:20:03;6.13;;;1.40;;
75823;SDS011;64457;51.976;9.834;2023-03-23T07:22:32;6.03;;;1.40;;
75823;SDS011;64457;51.976;9.834;2023-03-23T07:25:02;5.90;;;1.40;;
75823;SDS011;64457;51.976;9.834;2023-03-23T07:27:30;5.53;;;1.27;;
75823;SDS011;64457;51.976;9.834;2023-03-23T07:29:57;5.53;;;1.50;;
75823;SDS011;64457;51.976;9.834;2023-03-23T07:32:25;5.40;;;1.30;;
75823;SDS011;64457;51.976;9.834;2023-03-23T07:34:53;7.47;;;1.80;;
75823;SDS011;64457;51.976;9.834;2023-03-23T07:37:21;7.20;;;1.40;;
75823;SDS011;64457;51.976;9.834;2023-03-23T07:39:49;5.47;;;1.30;;
75823;SDS011;64457;51.976;9.834;2023-03-23T07:42:18;6.23;;;1.40;;
75823;SDS011;64457;51.976;9.834;2023-03-23T07:44:46;6.70;;;1.60;;
75823;SDS011;64457;51.976;9.834;2023-03-23T07:47:13;5.93;;;1.33;;
75823;SDS011;64457;51.976;9.834;2023-03-23T07:49:43;6.07;;;1.20;;
75823;SDS011;64457;51.976;9.834;2023-03-23T07:52:11;8.23;;;1.57;;
75823;SDS011;64457;51.976;9.834;2023-03-23T07:54:38;7.30;;;1.30;;
75823;SDS011;64457;51.976;9.834;2023-03-23T07:57:06;7.37;;;1.37;;
75823;SDS011;64457;51.976;9.834;2023-03-23T07:59:35;6.33;;;1.37;;
75823;SDS011;64457;51.976;9.834;2023-03-23T08:02:04;7.03;;;1.10;;
75823;SDS011;64457;51.976;9.834;2023-03-23T08:04:32;5.60;;;1.27;;
75823;SDS011;64457;51.976;9.834;2023-03-23T08:07:02;6.40;;;1.40;;
75823;SDS011;64457;51.976;9.834;2023-03-23T08:09:30;7.93;;;1.30;;
75823;SDS011;64457;51.976;9.834;2023-03-23T08:11:59;6.73;;;1.47;;
75823;SDS011;64457;51.976;9.834;2023-03-23T08:14:26;5.80;;;1.30;;
75823;SDS011;64457;51.976;9.834;2023-03-23T08:16:56;7.60;;;1.63;;
75823;SDS011;64457;51.976;9.834;2023-03-23T08:19:24;7.20;;;1.37;;
75823;SDS011;64457;51.976;9.834;2023-03-23T08:21:51;6.97;;;1.70;;
75823;SDS011;64457;51.976;9.834;2023-03-23T08:24:20;6.30;;;1.40;;
75823;SDS011;64457;51.976;9.834;2023-03-23T08:26:48;7.57;;;1.60;;
75823;SDS011;64457;51.976;9.834;2023-03-23T08:29:16;6.07;;;1.47;;
75823;SDS011;64457;51.976;9.834;2023-03-23T08:31:44;6.10;;;1.40;;
75823;SDS011;64457;51.976;9.834;2023-03-23T08:34:15;7.13;;;1.60;;
75823;SDS011;64457;51.976;9.834;2023-03-23T08:36:44;6.83;;;1.60;;
75823;SDS011;64457;51.976;9.834;2023-03-23T08:39:14;6.63;;;1.57;;
75823;SDS011;64457;51.976;9.834;2023-03-23T08:41:44;7.70;;;1.43;;
75823;SDS011;64457;51.976;9.834;2023-03-23T08:44:12;8.57;;;1.70;;
75823;SDS011;64457;51.976;9.834;2023-03-23T08:46:39;5.87;;;1.27;;
75823;SDS011;64457;51.976;9.834;2023-03-23T08:49:07;7.20;;;1.63;;
75823;SDS011;64457;51.976;9.834;2023-03-23T08:51:37;7.03;;;1.40;;
75823;SDS011;64457;51.976;9.834;2023-03-23T08:54:05;6.33;;;1.40;;
75823;SDS011;64457;51.976;9.834;2023-03-23T08:56:34;6.07;;;1.23;;
75823;SDS011;64457;51.976;9.834;2023-03-23T08:59:02;6.80;;;1.60;;
75823;SDS011;64457;51.976;9.834;2023-03-23T09:01:30;8.73;;;1.90;;
75823;SDS011;64457;51.976;9.834;2023-03-23T09:03:58;8.23;;;1.40;;
75823;SDS011;64457;51.976;9.834;2023-03-23T09:06:26;7.20;;;1.60;;
75823;SDS011;64457;51.976;9.834;2023-03-23T09:08:55;7.67;;;1.53;;
75823;SDS011;64457;51.976;9.834;2023-03-23T09:11:25;7.43;;;1.63;;
75823;SDS011;64457;51.976;9.834;2023-03-23T09:13:53;7.13;;;1.50;;
75823;SDS011;64457;51.976;9.834;2023-03-23T09:16:21;8.57;;;1.70;;
75823;SDS011;64457;51.976;9.834;2023-03-23T09:18:49;7.17;;;1.60;;
75823;SDS011;64457;51.976;9.834;2023-03-23T09:21:16;6.87;;;1.50;;
75823;SDS011;64457;51.976;9.834;2023-03-23T09:23:44;6.33;;;1.70;;
75823;SDS011;64457;51.976;9.834;2023-03-23T09:26:15;6.20;;;1.50;;
75823;SDS011;64457;51.976;9.834;2023-03-23T09:28:42;6.30;;;1.50;;
75823;SDS011;64457;51.976;9.834;2023-03-23T09:31:11;8.00;;;1.80;;
75823;SDS011;64457;51.976;9.834;2023-03-23T09:33:39;8.50;;;1.70;;
75823;SDS011;64457;51.976;9.834;2023-03-23T09:36:07;11.63;;;1.70;;
75823;SDS011;64457;51.976;9.834;2023-03-23T09:38:38;7.30;;;1.57;;
75823;SDS011;64457;51.976;9.834;2023-03-23T09:41:10;7.40;;;1.80;;
75823;SDS011;64457;51.976;9.834;2023-03-23T09:43:58;6.57;;;1.47;;
75823;SDS011;64457;51.976;9.834;2023-03-23T09:46:41;7.67;;;1.90;;
75823;SDS011;64457;51.976;9.834;2023-03-23T09:49:20;7.60;;;1.50;;
75823;SDS011;64457;51.976;9.834;2023-03-23T09:51:54;8.90;;;1.40;;
75823;SDS011;64457;51.976;9.834;2023-03-23T09:54:26;10.50;;;1.23;;
75823;SDS011;64457;51.976;9.834;2023-03-23T09:57:00;7.90;;;1.40;;
75823;SDS011;64457;51.976;9.834;2023-03-23T09:59:30;11.10;;;2.00;;
75823;SDS011;64457;51.976;9.834;2023-03-23T10:02:09;8.93;;;1.50;;
75823;SDS011;64457;51.976;9.834;2023-03-23T10:04:43;10.00;;;1.73;;
75823;SDS011;64457;51.976;9.834;2023-03-23T10:07:14;7.10;;;1.50;;
75823;SDS011;64457;51.976;9.834;2023-03-23T10:09:44;6.83;;;1.40;;
75823;SDS011;64457;51.976;9.834;2023-03-23T10:12:21;7.80;;;1.50;;
75823;SDS011;64457;51.976;9.834;2023-03-23T10:14:59;7.37;;;1.50;;
75823;SDS011;64457;51.976;9.834;2023-03-23T10:17:40;7.90;;;1.67;;
75823;SDS011;64457;51.976;9.834;2023-03-23T10:20:25;9.40;;;1.60;;
75823;SDS011;64457;51.976;9.834;2023-03-23T10:23:02;7.50;;;1.30;;
75823;SDS011;64457;51.976;9.834;2023-03-23T10:25:52;6.50;;;1.43;;
75823;SDS011;64457;51.976;9.834;2023-03-23T10:28:35;8.03;;;1.50;;
75823;SDS011;64457;51.976;9.834;2023-03-23T10:31:08;6.60;;;1.30;;
75823;SDS011;64457;51.976;9.834;2023-03-23T10:33:40;8.40;;;1.80;;
75823;SDS011;64457;51.976;9.834;2023-03-23T10:36:13;9.43;;;1.63;;
75823;SDS011;64457;51.976;9.834;2023-03-23T10:38:45;8.80;;;1.47;;
75823;SDS011;64457;51.976;9.834;2023-03-23T10:41:18;10.30;;;1.53;;
75823;SDS011;64457;51.976;9.834;2023-03-23T10:43:48;8.00;;;1.43;;
75823;SDS011;64457;51.976;9.834;2023-03-23T10:46:21;6.80;;;1.50;;
75823;SDS011;64457;51.976;9.834;2023-03-23T10:49:00;7.37;;;1.50;;
75823;SDS011;64457;51.976;9.834;2023-03-23T10:51:34;9.40;;;1.70;;
75823;SDS011;64457;51.976;9.834;2023-03-23T10:54:05;7.13;;;1.40;;
75823;SDS011;64457;51.976;9.834;2023-03-23T10:56:38;6.93;;;1.50;;
75823;SDS011;64457;51.976;9.834;2023-03-23T10:59:15;6.80;;;1.50;;
75823;SDS011;64457;51.976;9.834;2023-03-23T11:01:48;6.53;;;1.40;;
75823;SDS011;64457;51.976;9.834;2023-03-23T11:04:19;13.03;;;2.03;;
75823;SDS011;64457;51.976;9.834;2023-03-23T11:06:48;11.03;;;1.67;;
75823;SDS011;64457;51.976;9.834;2023-03-23T11:09:19;5.80;;;1.20;;
75823;SDS011;64457;51.976;9.834;2023-03-23T11:11:49;6.30;;;1.43;;
75823;SDS011;64457;51.976;9.834;2023-03-23T11:14:28;9.23;;;1.50;;
75823;SDS011;64457;51.976;9.834;2023-03-23T11:17:00;5.97;;;1.40;;
75823;SDS011;64457;51.976;9.834;2023-03-23T11:19:32;8.67;;;1.50;;
75823;SDS011;64457;51.976;9.834;2023-03-23T11:22:06;7.20;;;1.40;;
75823;SDS011;64457;51.976;9.834;2023-03-23T11:24:36;5.90;;;1.37;;
75823;SDS011;64457;51.976;9.834;2023-03-23T11:27:08;7.80;;;1.73;;
75823;SDS011;64457;51.976;9.834;2023-03-23T11:29:47;8.47;;;1.70;;
75823;SDS011;64457;51.976;9.834;2023-03-23T11:32:18;8.10;;;1.40;;
75823;SDS011;64457;51.976;9.834;2023-03-23T11:34:53;6.30;;;1.43;;
75823;SDS011;64457;51.976;9.834;2023-03-23T11:37:25;5.97;;;1.10;;
75823;SDS011;64457;51.976;9.834;2023-03-23T11:39:59;8.37;;;1.60;;
75823;SDS011;64457;51.976;9.834;2023-03-23T11:42:35;11.20;;;1.47;;
75823;SDS011;64457;51.976;9.834;2023-03-23T11:45:17;7.70;;;1.50;;
75823;SDS011;64457;51.976;9.834;2023-03-23T11:47:59;8.60;;;1.60;;
75823;SDS011;64457;51.976;9.834;2023-03-23T11:50:44;7.30;;;1.73;;
75823;SDS011;64457;51.976;9.834;2023-03-23T11:53:22;10.83;;;1.80;;
75823;SDS011;64457;51.976;9.834;2023-03-23T11:56:06;8.13;;;1.40;;
75823;SDS011;64457;51.976;9.834;2023-03-23T11:58:42;7.50;;;1.47;;
75823;SDS011;64457;51.976;9.834;2023-03-23T12:01:15;8.73;;;1.50;;
75823;SDS011;64457;51.976;9.834;2023-03-23T12:06:58;8.50;;;1.67;;
75823;SDS011;64457;51.976;9.834;2023-03-23T12:09:55;6.50;;;1.37;;
75823;SDS011;64457;51.976;9.834;2023-03-23T12:12:34;9.27;;;1.77;;
75823;SDS011;64457;51.976;9.834;2023-03-23T12:15:13;9.53;;;1.60;;
75823;SDS011;64457;51.976;9.834;2023-03-23T12:17:54;9.07;;;1.77;;
75823;SDS011;64457;51.976;9.834;2023-03-23T12:20:37;10.40;;;1.90;;
75823;SDS011;64457;51.976;9.834;2023-03-23T12:23:17;6.60;;;1.63;;
75823;SDS011;64457;51.976;9.834;2023-03-23T12:26:01;7.83;;;1.73;;
75823;SDS011;64457;51.976;9.834;2023-03-23T12:31:52;6.57;;;1.37;;
75823;SDS011;64457;51.976;9.834;2023-03-23T12:34:43;7.00;;;1.47;;
75823;SDS011;64457;51.976;9.834;2023-03-23T12:37:23;10.77;;;2.20;;
75823;SDS011;64457;51.976;9.834;2023-03-23T12:40:07;7.23;;;1.43;;
75823;SDS011;64457;51.976;9.834;2023-03-23T12:43:17;12.53;;;1.97;;
75823;SDS011;64457;51.976;9.834;2023-03-23T12:48:51;9.80;;;2.07;;
75823;SDS011;64457;51.976;9.834;2023-03-23T12:51:26;7.87;;;1.80;;
75823;SDS011;64457;51.976;9.834;2023-03-23T12:54:01;8.67;;;1.80;;
75823;SDS011;64457;51.976;9.834;2023-03-23T12:56:38;8.10;;;1.30;;
75823;SDS011;64457;51.976;9.834;2023-03-23T12:59:20;8.50;;;1.73;;
75823;SDS011;64457;51.976;9.834;2023-03-23T13:01:54;12.23;;;1.70;;
75823;SDS011;64457;51.976;9.834;2023-03-23T13:04:29;9.20;;;1.97;;
75823;SDS011;64457;51.976;9.834;2023-03-23T13:07:05;9.67;;;2.07;;
75823;SDS011;64457;51.976;9.834;2023-03-23T13:09:39;6.50;;;1.40;;
75823;SDS011;64457;51.976;9.834;2023-03-23T13:12:20;7.20;;;1.57;;
75823;SDS011;64457;51.976;9.834;2023-03-23T13:14:52;9.83;;;1.60;;
75823;SDS011;64457;51.976;9.834;2023-03-23T13:17:34;12.63;;;1.90;;
75823;SDS011;64457;51.976;9.834;2023-03-23T13:20:34;8.30;;;1.83;;
75823;SDS011;64457;51.976;9.834;2023-03-23T13:23:20;8.23;;;1.90;;
75823;SDS011;64457;51.976;9.834;2023-03-23T13:25:51;10.50;;;1.80;;
75823;SDS011;64457;51.976;9.834;2023-03-23T13:28:24;6.43;;;1.57;;
75823;SDS011;64457;51.976;9.834;2023-03-23T13:31:01;7.60;;;2.30;;
75823;SDS011;64457;51.976;9.834;2023-03-23T13:33:32;8.40;;;2.00;;
75823;SDS011;64457;51.976;9.834;2023-03-23T13:36:03;8.43;;;1.97;;
75823;SDS011;64457;51.976;9.834;2023-03-23T13:38:37;7.37;;;1.53;;
75823;SDS011;64457;51.976;9.834;2023-03-23T13:41:13;9.53;;;2.23;;
75823;SDS011;64457;51.976;9.834;2023-03-23T13:43:45;7.53;;;2.00;;
75823;SDS011;64457;51.976;9.834;2023-03-23T13:46:23;7.97;;;1.90;;
75823;SDS011;64457;51.976;9.834;2023-03-23T13:54:46;9.90;;;1.80;;
75823;SDS011;64457;51.976;9.834;2023-03-23T13:57:25;6.17;;;1.47;;
75823;SDS011;64457;51.976;9.834;2023-03-23T14:00:25;6.13;;;1.30;;
75823;SDS011;64457;51.976;9.834;2023-03-23T14:03:05;7.70;;;1.83;;
75823;SDS011;64457;51.976;9.834;2023-03-23T14:05:40;9.53;;;1.50;;
75823;SDS011;64457;51.976;9.834;2023-03-23T14:08:22;7.27;;;1.60;;
75823;SDS011;64457;51.976;9.834;2023-03-23T14:11:13;11.63;;;1.53;;
75823;SDS011;64457;51.976;9.834;2023-03-23T14:13:45;6.10;;;1.33;;
75823;SDS011;64457;51.976;9.834;2023-03-23T14:16:19;9.87;;;2.00;;
75823;SDS011;64457;51.976;9.834;2023-03-23T14:18:51;6.90;;;1.70;;
75823;SDS011;64457;51.976;9.834;2023-03-23T14:21:30;7.57;;;1.97;;
75823;SDS011;64457;51.976;9.834;2023-03-23T14:24:02;10.00;;;1.97;;
75823;SDS011;64457;51.976;9.834;2023-03-23T14:26:34;8.83;;;2.00;;
75823;SDS011;64457;51.976;9.834;2023-03-23T14:29:03;7.53;;;1.73;;
75823;SDS011;64457;51.976;9.834;2023-03-23T14:31:32;7.93;;;1.63;;
75823;SDS011;64457;51.976;9.834;2023-03-23T14:34:03;8.00;;;1.87;;
75823;SDS011;64457;51.976;9.834;2023-03-23T14:36:39;8.47;;;2.23;;
75823;SDS011;64457;51.976;9.834;2023-03-23T14:39:12;9.30;;;2.17;;
75823;SDS011;64457;51.976;9.834;2023-03-23T14:41:47;8.43;;;2.00;;
75823;SDS011;64457;51.976;9.834;2023-03-23T14:44:17;9.53;;;2.73;;
75823;SDS011;64457;51.976;9.834;2023-03-23T14:46:50;9.30;;;2.17;;
75823;SDS011;64457;51.976;9.834;2023-03-23T14:49:27;11.30;;;2.40;;
75823;SDS011;64457;51.976;9.834;2023-03-23T14:52:02;9.30;;;2.60;;
75823;SDS011;64457;51.976;9.834;2023-03-23T14:54:35;9.27;;;2.60;;
75823;SDS011;64457;51.976;9.834;2023-03-23T14:57:12;10.17;;;2.43;;
75823;SDS011;64457;51.976;9.834;2023-03-23T14:59:41;8.17;;;2.53;;
75823;SDS011;64457;51.976;9.834;2023-03-23T15:02:11;7.57;;;2.40;;
75823;SDS011;64457;51.976;9.834;2023-03-23T15:04:42;9.13;;;2.30;;
75823;SDS011;64457;51.976;9.834;2023-03-23T15:07:12;7.33;;;2.40;;
75823;SDS011;64457;51.976;9.834;2023-03-23T15:09:41;9.80;;;2.53;;
75823;SDS011;64457;51.976;9.834;2023-03-23T15:12:18;10.47;;;2.80;;
75823;SDS011;64457;51.976;9.834;2023-03-23T15:14:49;7.37;;;2.20;;
75823;SDS011;64457;51.976;9.834;2023-03-23T15:17:20;9.60;;;2.40;;
75823;SDS011;64457;51.976;9.834;2023-03-23T15:19:50;8.83;;;2.60;;
75823;SDS011;64457;51.976;9.834;2023-03-23T15:22:20;6.43;;;1.97;;
75823;SDS011;64457;51.976;9.834;2023-03-23T15:24:51;9.47;;;2.30;;
75823;SDS011;64457;51.976;9.834;2023-03-23T15:27:26;7.20;;;2.13;;
75823;SDS011;64457;51.976;9.834;2023-03-23T15:29:56;8.00;;;2.30;;
75823;SDS011;64457;51.976;9.834;2023-03-23T15:32:26;6.70;;;2.17;;
75823;SDS011;64457;51.976;9.834;2023-03-23T15:34:56;7.27;;;2.30;;
75823;SDS011;64457;51.976;9.834;2023-03-23T15:37:26;8.40;;;2.10;;
75823;SDS011;64457;51.976;9.834;2023-03-23T15:39:55;6.40;;;1.80;;